sensor_id;sensor_type;location;lat;lon;timestamp;P1;durP1;ratioP1;P2;durP2;ratioP2
8550;SDS011;4313;42.000;21.380;2022-11-23T00:02:02;9.93;;;8.93;;
8550;SDS011;4313;42.000;21.380;2022-11-23T00:04:29;9.97;;;8.73;;
8550;SDS011;4313;42.000;21.380;2022-11-23T00:06:56;8.50;;;6.80;;
8550;SDS011;4313;42.000;21.380;2022-11-23T00:09:23;9.77;;;6.97;;
8550;SDS011;4313;42.000;21.380;2022-11-23T00:11:51;7.27;;;6.33;;
8550;SDS011;4313;42.000;21.380;2022-11-23T00:14:18;9.13;;;7.20;;
8550;SDS011;4313;42.000;21.380;2022-11-23T00:16:45;22.47;;;15.17;;
8550;SDS011;4313;42.000;21.380;2022-11-23T00:19:12;21.13;;;13.80;;
8550;SDS011;4313;42.000;21.380;2022-11-23T00:21:39;21.57;;;13.60;;
8550;SDS011;4313;42.000;21.380;2022-11-23T00:24:08;17.17;;;12.70;;
8550;SDS011;4313;42.000;21.380;2022-11-23T00:26:37;13.53;;;8.87;;
8550;SDS011;4313;42.000;21.380;2022-11-23T00:29:05;13.57;;;10.90;;
8550;SDS011;4313;42.000;21.380;2022-11-23T00:31:32;12.07;;;9.80;;
8550;SDS011;4313;42.000;21.380;2022-11-23T00:33:59;10.63;;;8.10;;
8550;SDS011;4313;42.000;21.380;2022-11-23T00:36:26;10.43;;;8.40;;
8550;SDS011;4313;42.000;21.380;2022-11-23T00:38:53;11.07;;;8.40;;
8550;SDS011;4313;42.000;21.380;2022-11-23T00:41:22;10.00;;;7.43;;
8550;SDS011;4313;42.000;21.380;2022-11-23T00:43:50;10.30;;;7.43;;
8550;SDS011;4313;42.000;21.380;2022-11-23T00:46:19;8.47;;;6.50;;
8550;SDS011;4313;42.000;21.380;2022-11-23T00:48:48;9.20;;;6.53;;
8550;SDS011;4313;42.000;21.380;2022-11-23T00:51:17;8.70;;;6.67;;
8550;SDS011;4313;42.000;21.380;2022-11-23T00:53:45;8.13;;;6.37;;
8550;SDS011;4313;42.000;21.380;2022-11-23T00:56:12;8.47;;;6.20;;
8550;SDS011;4313;42.000;21.380;2022-11-23T00:58:39;9.60;;;6.70;;
8550;SDS011;4313;42.000;21.380;2022-11-23T01:01:07;9.43;;;7.60;;
8550;SDS011;4313;42.000;21.380;2022-11-23T01:03:37;9.43;;;7.57;;
8550;SDS011;4313;42.000;21.380;2022-11-23T01:06:06;7.67;;;6.60;;
8550;SDS011;4313;42.000;21.380;2022-11-23T01:08:35;7.50;;;5.53;;
8550;SDS011;4313;42.000;21.380;2022-11-23T01:11:04;6.50;;;5.00;;
8550;SDS011;4313;42.000;21.380;2022-11-23T01:13:33;7.27;;;5.43;;
8550;SDS011;4313;42.000;21.380;2022-11-23T01:16:01;7.47;;;5.07;;
8550;SDS011;4313;42.000;21.380;2022-11-23T01:18:28;6.47;;;5.30;;
8550;SDS011;4313;42.000;21.380;2022-11-23T01:20:57;6.20;;;4.67;;
8550;SDS011;4313;42.000;21.380;2022-11-23T01:23:27;6.83;;;5.20;;
8550;SDS011;4313;42.000;21.380;2022-11-23T01:25:54;6.70;;;4.93;;
8550;SDS011;4313;42.000;21.380;2022-11-23T01:28:21;8.60;;;5.87;;
8550;SDS011;4313;42.000;21.380;2022-11-23T01:30:48;12.10;;;8.13;;
8550;SDS011;4313;42.000;21.380;2022-11-23T01:33:15;8.83;;;6.53;;
8550;SDS011;4313;42.000;21.380;2022-11-23T01:35:42;9.90;;;7.13;;
8550;SDS011;4313;42.000;21.380;2022-11-23T01:38:11;10.17;;;5.93;;
8550;SDS011;4313;42.000;21.380;2022-11-23T01:40:38;6.47;;;4.83;;
8550;SDS011;4313;42.000;21.380;2022-11-23T01:43:09;6.53;;;4.73;;
8550;SDS011;4313;42.000;21.380;2022-11-23T01:45:41;10.27;;;6.63;;
8550;SDS011;4313;42.000;21.380;2022-11-23T01:48:13;9.37;;;6.47;;
8550;SDS011;4313;42.000;21.380;2022-11-23T01:50:45;8.33;;;6.03;;
8550;SDS011;4313;42.000;21.380;2022-11-23T01:53:16;8.63;;;6.10;;
8550;SDS011;4313;42.000;21.380;2022-11-23T01:55:43;7.67;;;6.07;;
8550;SDS011;4313;42.000;21.380;2022-11-23T01:58:12;9.57;;;7.13;;
8550;SDS011;4313;42.000;21.380;2022-11-23T02:00:41;9.70;;;7.23;;
8550;SDS011;4313;42.000;21.380;2022-11-23T02:03:09;8.60;;;6.73;;
8550;SDS011;4313;42.000;21.380;2022-11-23T02:05:36;11.73;;;9.00;;
8550;SDS011;4313;42.000;21.380;2022-11-23T02:08:06;14.90;;;10.57;;
8550;SDS011;4313;42.000;21.380;2022-11-23T02:10:34;13.13;;;8.30;;
8550;SDS011;4313;42.000;21.380;2022-11-23T02:13:03;11.87;;;7.57;;
8550;SDS011;4313;42.000;21.380;2022-11-23T02:15:34;12.73;;;8.60;;
8550;SDS011;4313;42.000;21.380;2022-11-23T02:18:02;14.17;;;9.57;;
8550;SDS011;4313;42.000;21.380;2022-11-23T02:20:30;15.50;;;10.13;;
8550;SDS011;4313;42.000;21.380;2022-11-23T02:23:00;17.87;;;12.17;;
8550;SDS011;4313;42.000;21.380;2022-11-23T02:25:39;12.60;;;8.70;;
8550;SDS011;4313;42.000;21.380;2022-11-23T02:28:16;15.03;;;10.67;;
8550;SDS011;4313;42.000;21.380;2022-11-23T02:30:45;11.97;;;9.00;;
8550;SDS011;4313;42.000;21.380;2022-11-23T02:33:13;9.87;;;7.47;;
8550;SDS011;4313;42.000;21.380;2022-11-23T02:35:45;8.97;;;7.27;;
8550;SDS011;4313;42.000;21.380;2022-11-23T02:38:13;9.17;;;7.10;;
8550;SDS011;4313;42.000;21.380;2022-11-23T02:40:41;10.77;;;7.53;;
8550;SDS011;4313;42.000;21.380;2022-11-23T02:43:10;7.83;;;5.97;;
8550;SDS011;4313;42.000;21.380;2022-11-23T02:45:38;9.23;;;7.00;;
8550;SDS011;4313;42.000;21.380;2022-11-23T02:48:08;10.83;;;8.30;;
8550;SDS011;4313;42.000;21.380;2022-11-23T02:50:37;9.73;;;8.03;;
8550;SDS011;4313;42.000;21.380;2022-11-23T02:53:05;8.77;;;6.60;;
8550;SDS011;4313;42.000;21.380;2022-11-23T02:55:32;9.03;;;7.10;;
8550;SDS011;4313;42.000;21.380;2022-11-23T02:58:00;10.57;;;7.63;;
8550;SDS011;4313;42.000;21.380;2022-11-23T03:00:29;9.23;;;7.40;;
8550;SDS011;4313;42.000;21.380;2022-11-23T03:02:58;8.03;;;6.97;;
8550;SDS011;4313;42.000;21.380;2022-11-23T03:05:26;10.77;;;7.77;;
8550;SDS011;4313;42.000;21.380;2022-11-23T03:07:53;10.70;;;6.77;;
8550;SDS011;4313;42.000;21.380;2022-11-23T03:10:20;12.70;;;10.90;;
8550;SDS011;4313;42.000;21.380;2022-11-23T03:12:52;11.33;;;8.00;;
8550;SDS011;4313;42.000;21.380;2022-11-23T03:15:21;11.27;;;8.60;;
8550;SDS011;4313;42.000;21.380;2022-11-23T03:17:49;10.97;;;8.03;;
8550;SDS011;4313;42.000;21.380;2022-11-23T03:20:18;11.63;;;7.33;;
8550;SDS011;4313;42.000;21.380;2022-11-23T03:22:48;8.53;;;7.10;;
8550;SDS011;4313;42.000;21.380;2022-11-23T03:25:16;9.83;;;7.80;;
8550;SDS011;4313;42.000;21.380;2022-11-23T03:27:46;7.83;;;6.53;;
8550;SDS011;4313;42.000;21.380;2022-11-23T03:30:14;7.47;;;6.40;;
8550;SDS011;4313;42.000;21.380;2022-11-23T03:32:41;9.97;;;6.50;;
8550;SDS011;4313;42.000;21.380;2022-11-23T03:35:10;8.27;;;6.87;;
8550;SDS011;4313;42.000;21.380;2022-11-23T03:37:56;9.70;;;6.77;;
8550;SDS011;4313;42.000;21.380;2022-11-23T03:40:23;8.83;;;6.97;;
8550;SDS011;4313;42.000;21.380;2022-11-23T03:43:16;9.10;;;6.47;;
8550;SDS011;4313;42.000;21.380;2022-11-23T03:45:44;9.77;;;6.83;;
8550;SDS011;4313;42.000;21.380;2022-11-23T03:48:11;9.27;;;6.20;;
8550;SDS011;4313;42.000;21.380;2022-11-23T03:50:39;8.17;;;6.27;;
8550;SDS011;4313;42.000;21.380;2022-11-23T03:53:07;8.60;;;6.63;;
8550;SDS011;4313;42.000;21.380;2022-11-23T03:55:34;9.97;;;7.53;;
8550;SDS011;4313;42.000;21.380;2022-11-23T03:58:02;8.40;;;6.70;;
8550;SDS011;4313;42.000;21.380;2022-11-23T04:00:33;8.87;;;6.77;;
8550;SDS011;4313;42.000;21.380;2022-11-23T04:03:00;9.70;;;6.67;;
8550;SDS011;4313;42.000;21.380;2022-11-23T04:05:47;8.37;;;6.63;;
8550;SDS011;4313;42.000;21.380;2022-11-23T04:08:32;10.57;;;7.17;;
8550;SDS011;4313;42.000;21.380;2022-11-23T04:11:04;10.03;;;6.90;;
8550;SDS011;4313;42.000;21.380;2022-11-23T04:13:35;9.93;;;6.83;;
8550;SDS011;4313;42.000;21.380;2022-11-23T04:16:03;10.23;;;7.33;;
8550;SDS011;4313;42.000;21.380;2022-11-23T04:18:32;9.20;;;6.67;;
8550;SDS011;4313;42.000;21.380;2022-11-23T04:21:00;9.87;;;7.20;;
8550;SDS011;4313;42.000;21.380;2022-11-23T04:23:27;8.10;;;6.50;;
8550;SDS011;4313;42.000;21.380;2022-11-23T04:25:55;7.83;;;6.20;;
8550;SDS011;4313;42.000;21.380;2022-11-23T04:28:22;7.37;;;6.00;;
8550;SDS011;4313;42.000;21.380;2022-11-23T04:30:51;9.27;;;6.20;;
8550;SDS011;4313;42.000;21.380;2022-11-23T04:33:18;7.23;;;6.00;;
8550;SDS011;4313;42.000;21.380;2022-11-23T04:35:45;9.10;;;6.40;;
8550;SDS011;4313;42.000;21.380;2022-11-23T04:38:14;8.27;;;5.87;;
8550;SDS011;4313;42.000;21.380;2022-11-23T04:40:41;7.20;;;5.57;;
8550;SDS011;4313;42.000;21.380;2022-11-23T04:43:09;9.13;;;6.70;;
8550;SDS011;4313;42.000;21.380;2022-11-23T04:45:37;7.70;;;6.00;;
8550;SDS011;4313;42.000;21.380;2022-11-23T04:48:09;8.63;;;6.67;;
8550;SDS011;4313;42.000;21.380;2022-11-23T04:50:36;9.23;;;5.90;;
8550;SDS011;4313;42.000;21.380;2022-11-23T04:53:06;9.17;;;6.33;;
8550;SDS011;4313;42.000;21.380;2022-11-23T04:55:40;10.27;;;6.70;;
8550;SDS011;4313;42.000;21.380;2022-11-23T04:58:08;7.90;;;6.13;;
8550;SDS011;4313;42.000;21.380;2022-11-23T05:00:35;9.43;;;6.70;;
8550;SDS011;4313;42.000;21.380;2022-11-23T05:03:04;7.33;;;6.00;;
8550;SDS011;4313;42.000;21.380;2022-11-23T05:05:35;7.40;;;6.17;;
8550;SDS011;4313;42.000;21.380;2022-11-23T05:08:03;8.47;;;6.77;;
8550;SDS011;4313;42.000;21.380;2022-11-23T05:10:52;8.90;;;7.00;;
8550;SDS011;4313;42.000;21.380;2022-11-23T05:13:19;9.87;;;6.60;;
8550;SDS011;4313;42.000;21.380;2022-11-23T05:15:47;13.13;;;8.93;;
8550;SDS011;4313;42.000;21.380;2022-11-23T05:18:19;10.73;;;8.97;;
8550;SDS011;4313;42.000;21.380;2022-11-23T05:20:48;9.73;;;7.80;;
8550;SDS011;4313;42.000;21.380;2022-11-23T05:23:15;10.50;;;8.50;;
8550;SDS011;4313;42.000;21.380;2022-11-23T05:25:43;10.50;;;8.23;;
8550;SDS011;4313;42.000;21.380;2022-11-23T05:28:16;11.60;;;8.63;;
8550;SDS011;4313;42.000;21.380;2022-11-23T05:30:44;10.80;;;8.23;;
8550;SDS011;4313;42.000;21.380;2022-11-23T05:33:11;10.30;;;8.57;;
8550;SDS011;4313;42.000;21.380;2022-11-23T05:35:38;9.93;;;8.30;;
8550;SDS011;4313;42.000;21.380;2022-11-23T05:38:07;10.53;;;8.50;;
8550;SDS011;4313;42.000;21.380;2022-11-23T05:40:34;11.80;;;7.70;;
8550;SDS011;4313;42.000;21.380;2022-11-23T05:43:02;11.67;;;8.83;;
8550;SDS011;4313;42.000;21.380;2022-11-23T05:45:31;19.17;;;13.83;;
8550;SDS011;4313;42.000;21.380;2022-11-23T05:47:58;32.50;;;23.77;;
8550;SDS011;4313;42.000;21.380;2022-11-23T05:50:44;23.50;;;17.67;;
8550;SDS011;4313;42.000;21.380;2022-11-23T05:53:37;19.27;;;13.90;;
8550;SDS011;4313;42.000;21.380;2022-11-23T05:56:25;18.97;;;14.27;;
8550;SDS011;4313;42.000;21.380;2022-11-23T05:59:03;18.27;;;13.67;;
8550;SDS011;4313;42.000;21.380;2022-11-23T06:01:35;15.90;;;12.17;;
8550;SDS011;4313;42.000;21.380;2022-11-23T06:04:03;14.87;;;11.30;;
8550;SDS011;4313;42.000;21.380;2022-11-23T06:06:36;15.20;;;10.30;;
8550;SDS011;4313;42.000;21.380;2022-11-23T06:09:03;17.87;;;13.23;;
8550;SDS011;4313;42.000;21.380;2022-11-23T06:11:32;17.27;;;13.90;;
8550;SDS011;4313;42.000;21.380;2022-11-23T06:14:06;16.73;;;12.40;;
8550;SDS011;4313;42.000;21.380;2022-11-23T06:16:35;20.40;;;15.83;;
8550;SDS011;4313;42.000;21.380;2022-11-23T06:19:14;19.67;;;14.57;;
8550;SDS011;4313;42.000;21.380;2022-11-23T06:21:41;15.37;;;12.43;;
8550;SDS011;4313;42.000;21.380;2022-11-23T06:24:09;17.17;;;13.07;;
8550;SDS011;4313;42.000;21.380;2022-11-23T06:26:37;16.63;;;12.77;;
8550;SDS011;4313;42.000;21.380;2022-11-23T06:29:05;18.13;;;13.33;;
8550;SDS011;4313;42.000;21.380;2022-11-23T06:31:33;16.47;;;12.97;;
8550;SDS011;4313;42.000;21.380;2022-11-23T06:34:02;19.93;;;15.40;;
8550;SDS011;4313;42.000;21.380;2022-11-23T06:36:30;21.00;;;16.10;;
8550;SDS011;4313;42.000;21.380;2022-11-23T06:38:57;15.50;;;13.47;;
8550;SDS011;4313;42.000;21.380;2022-11-23T06:41:26;16.20;;;12.70;;
8550;SDS011;4313;42.000;21.380;2022-11-23T06:43:54;18.30;;;12.97;;
8550;SDS011;4313;42.000;21.380;2022-11-23T06:46:36;20.37;;;15.27;;
8550;SDS011;4313;42.000;21.380;2022-11-23T06:49:03;20.47;;;16.83;;
8550;SDS011;4313;42.000;21.380;2022-11-23T06:51:30;19.77;;;15.60;;
8550;SDS011;4313;42.000;21.380;2022-11-23T06:53:57;21.30;;;16.47;;
8550;SDS011;4313;42.000;21.380;2022-11-23T06:56:25;19.92;;;15.70;;
8550;SDS011;4313;42.000;21.380;2022-11-23T06:58:53;19.77;;;15.70;;
8550;SDS011;4313;42.000;21.380;2022-11-23T07:01:24;10.63;;;9.50;;
8550;SDS011;4313;42.000;21.380;2022-11-23T07:04:06;10.60;;;8.15;;
8550;SDS011;4313;42.000;21.380;2022-11-23T07:06:41;11.15;;;8.20;;
8550;SDS011;4313;42.000;21.380;2022-11-23T07:09:19;9.10;;;7.75;;
8550;SDS011;4313;42.000;21.380;2022-11-23T07:12:11;9.95;;;7.85;;
8550;SDS011;4313;42.000;21.380;2022-11-23T07:14:39;9.98;;;8.02;;
8550;SDS011;4313;42.000;21.380;2022-11-23T07:17:06;7.43;;;6.25;;
8550;SDS011;4313;42.000;21.380;2022-11-23T07:19:36;9.90;;;6.80;;
8550;SDS011;4313;42.000;21.380;2022-11-23T07:22:04;13.13;;;9.95;;
8550;SDS011;4313;42.000;21.380;2022-11-23T07:24:31;14.00;;;9.68;;
8550;SDS011;4313;42.000;21.380;2022-11-23T07:26:59;7.72;;;6.50;;
8550;SDS011;4313;42.000;21.380;2022-11-23T07:29:26;8.65;;;6.65;;
8550;SDS011;4313;42.000;21.380;2022-11-23T07:31:53;7.93;;;6.57;;
8550;SDS011;4313;42.000;21.380;2022-11-23T07:34:22;9.10;;;7.35;;
8550;SDS011;4313;42.000;21.380;2022-11-23T07:36:51;12.50;;;9.18;;
8550;SDS011;4313;42.000;21.380;2022-11-23T07:39:19;16.10;;;11.68;;
8550;SDS011;4313;42.000;21.380;2022-11-23T07:41:49;13.43;;;9.38;;
8550;SDS011;4313;42.000;21.380;2022-11-23T07:44:24;13.32;;;9.25;;
8550;SDS011;4313;42.000;21.380;2022-11-23T07:46:51;11.80;;;9.13;;
8550;SDS011;4313;42.000;21.380;2022-11-23T07:49:18;12.93;;;9.75;;
8550;SDS011;4313;42.000;21.380;2022-11-23T07:51:46;10.07;;;8.35;;
8550;SDS011;4313;42.000;21.380;2022-11-23T07:54:14;11.07;;;7.85;;
8550;SDS011;4313;42.000;21.380;2022-11-23T07:56:42;11.57;;;9.20;;
8550;SDS011;4313;42.000;21.380;2022-11-23T07:59:09;12.27;;;10.32;;
8550;SDS011;4313;42.000;21.380;2022-11-23T08:01:36;10.57;;;9.03;;
8550;SDS011;4313;42.000;21.380;2022-11-23T08:04:03;11.57;;;9.93;;
8550;SDS011;4313;42.000;21.380;2022-11-23T08:06:30;12.97;;;10.33;;
8550;SDS011;4313;42.000;21.380;2022-11-23T08:08:57;10.27;;;9.00;;
8550;SDS011;4313;42.000;21.380;2022-11-23T08:11:26;8.93;;;7.70;;
8550;SDS011;4313;42.000;21.380;2022-11-23T08:13:52;12.53;;;10.53;;
8550;SDS011;4313;42.000;21.380;2022-11-23T08:16:20;11.33;;;10.13;;
8550;SDS011;4313;42.000;21.380;2022-11-23T08:18:47;12.70;;;10.90;;
8550;SDS011;4313;42.000;21.380;2022-11-23T08:21:15;12.87;;;9.73;;
8550;SDS011;4313;42.000;21.380;2022-11-23T08:23:42;13.17;;;9.73;;
8550;SDS011;4313;42.000;21.380;2022-11-23T08:26:09;13.73;;;10.30;;
8550;SDS011;4313;42.000;21.380;2022-11-23T08:28:38;14.18;;;10.80;;
8550;SDS011;4313;42.000;21.380;2022-11-23T08:31:05;13.43;;;9.10;;
8550;SDS011;4313;42.000;21.380;2022-11-23T08:33:33;26.02;;;13.57;;
8550;SDS011;4313;42.000;21.380;2022-11-23T08:36:02;38.25;;;19.05;;
8550;SDS011;4313;42.000;21.380;2022-11-23T08:38:29;35.38;;;18.63;;
8550;SDS011;4313;42.000;21.380;2022-11-23T08:40:57;42.22;;;21.02;;
8550;SDS011;4313;42.000;21.380;2022-11-23T08:43:24;39.75;;;20.75;;
8550;SDS011;4313;42.000;21.380;2022-11-23T08:45:54;38.47;;;21.30;;
8550;SDS011;4313;42.000;21.380;2022-11-23T08:48:21;41.33;;;22.10;;
8550;SDS011;4313;42.000;21.380;2022-11-23T08:50:48;44.70;;;23.85;;
8550;SDS011;4313;42.000;21.380;2022-11-23T08:53:15;46.40;;;25.75;;
8550;SDS011;4313;42.000;21.380;2022-11-23T08:55:42;42.78;;;23.48;;
8550;SDS011;4313;42.000;21.380;2022-11-23T08:58:10;42.10;;;22.80;;
8550;SDS011;4313;42.000;21.380;2022-11-23T09:00:37;38.08;;;20.52;;
8550;SDS011;4313;42.000;21.380;2022-11-23T09:03:05;37.03;;;20.00;;
8550;SDS011;4313;42.000;21.380;2022-11-23T09:05:32;33.45;;;19.80;;
8550;SDS011;4313;42.000;21.380;2022-11-23T09:07:59;33.05;;;19.10;;
8550;SDS011;4313;42.000;21.380;2022-11-23T09:10:27;33.88;;;19.50;;
8550;SDS011;4313;42.000;21.380;2022-11-23T09:12:54;31.98;;;18.88;;
8550;SDS011;4313;42.000;21.380;2022-11-23T09:15:21;30.27;;;17.35;;
8550;SDS011;4313;42.000;21.380;2022-11-23T09:17:48;30.20;;;17.00;;
8550;SDS011;4313;42.000;21.380;2022-11-23T09:20:17;28.75;;;16.42;;
8550;SDS011;4313;42.000;21.380;2022-11-23T09:22:48;26.33;;;14.52;;
8550;SDS011;4313;42.000;21.380;2022-11-23T09:25:16;27.52;;;15.23;;
8550;SDS011;4313;42.000;21.380;2022-11-23T09:27:45;20.25;;;12.57;;
8550;SDS011;4313;42.000;21.380;2022-11-23T09:30:13;22.40;;;13.70;;
8550;SDS011;4313;42.000;21.380;2022-11-23T09:32:40;24.38;;;12.70;;
8550;SDS011;4313;42.000;21.380;2022-11-23T09:35:08;22.42;;;11.93;;
8550;SDS011;4313;42.000;21.380;2022-11-23T09:37:36;23.48;;;13.50;;
8550;SDS011;4313;42.000;21.380;2022-11-23T09:40:03;25.58;;;13.65;;
8550;SDS011;4313;42.000;21.380;2022-11-23T09:45:20;26.67;;;15.10;;
8550;SDS011;4313;42.000;21.380;2022-11-23T09:47:56;25.20;;;14.25;;
8550;SDS011;4313;42.000;21.380;2022-11-23T09:50:45;28.85;;;13.20;;
8550;SDS011;4313;42.000;21.380;2022-11-23T09:53:16;25.88;;;12.52;;
8550;SDS011;4313;42.000;21.380;2022-11-23T09:55:47;24.35;;;14.23;;
8550;SDS011;4313;42.000;21.380;2022-11-23T09:58:16;28.38;;;13.43;;
8550;SDS011;4313;42.000;21.380;2022-11-23T10:00:45;24.00;;;12.30;;
8550;SDS011;4313;42.000;21.380;2022-11-23T10:03:15;21.27;;;11.93;;
8550;SDS011;4313;42.000;21.380;2022-11-23T10:05:43;21.10;;;11.07;;
8550;SDS011;4313;42.000;21.380;2022-11-23T10:08:18;19.08;;;10.80;;
8550;SDS011;4313;42.000;21.380;2022-11-23T10:10:52;26.17;;;11.60;;
8550;SDS011;4313;42.000;21.380;2022-11-23T10:13:27;20.77;;;12.10;;
8550;SDS011;4313;42.000;21.380;2022-11-23T10:16:08;21.80;;;11.55;;
8550;SDS011;4313;42.000;21.380;2022-11-23T10:18:45;20.33;;;11.05;;
8550;SDS011;4313;42.000;21.380;2022-11-23T10:21:18;18.60;;;10.65;;
8550;SDS011;4313;42.000;21.380;2022-11-23T10:23:53;18.17;;;10.23;;
8550;SDS011;4313;42.000;21.380;2022-11-23T10:26:25;18.50;;;9.85;;
8550;SDS011;4313;42.000;21.380;2022-11-23T10:28:53;16.98;;;9.70;;
8550;SDS011;4313;42.000;21.380;2022-11-23T10:31:22;18.60;;;9.02;;
8550;SDS011;4313;42.000;21.380;2022-11-23T10:33:54;17.38;;;9.20;;
8550;SDS011;4313;42.000;21.380;2022-11-23T10:36:23;16.13;;;8.55;;
8550;SDS011;4313;42.000;21.380;2022-11-23T10:38:51;17.48;;;8.82;;
8550;SDS011;4313;42.000;21.380;2022-11-23T10:41:23;15.65;;;8.90;;
8550;SDS011;4313;42.000;21.380;2022-11-23T10:43:51;17.80;;;9.45;;
8550;SDS011;4313;42.000;21.380;2022-11-23T10:46:26;19.13;;;9.85;;
8550;SDS011;4313;42.000;21.380;2022-11-23T10:48:55;18.30;;;9.32;;
8550;SDS011;4313;42.000;21.380;2022-11-23T10:51:35;24.23;;;9.25;;
8550;SDS011;4313;42.000;21.380;2022-11-23T10:54:05;20.83;;;9.35;;
8550;SDS011;4313;42.000;21.380;2022-11-23T10:56:43;20.20;;;9.43;;
8550;SDS011;4313;42.000;21.380;2022-11-23T10:59:16;21.13;;;11.20;;
8550;SDS011;4313;42.000;21.380;2022-11-23T11:01:57;17.48;;;9.23;;
8550;SDS011;4313;42.000;21.380;2022-11-23T11:04:26;15.70;;;8.63;;
8550;SDS011;4313;42.000;21.380;2022-11-23T11:07:01;15.73;;;8.07;;
8550;SDS011;4313;42.000;21.380;2022-11-23T11:09:37;17.63;;;9.82;;
8550;SDS011;4313;42.000;21.380;2022-11-23T11:12:04;28.35;;;14.00;;
8550;SDS011;4313;42.000;21.380;2022-11-23T11:14:34;15.30;;;8.70;;
8550;SDS011;4313;42.000;21.380;2022-11-23T11:17:01;15.95;;;8.82;;
8550;SDS011;4313;42.000;21.380;2022-11-23T11:19:29;22.15;;;10.20;;
8550;SDS011;4313;42.000;21.380;2022-11-23T11:21:57;17.42;;;10.20;;
8550;SDS011;4313;42.000;21.380;2022-11-23T11:24:27;16.02;;;7.68;;
8550;SDS011;4313;42.000;21.380;2022-11-23T11:26:59;15.23;;;7.45;;
8550;SDS011;4313;42.000;21.380;2022-11-23T11:29:30;15.63;;;7.40;;
8550;SDS011;4313;42.000;21.380;2022-11-23T11:31:58;13.77;;;6.63;;
8550;SDS011;4313;42.000;21.380;2022-11-23T11:34:27;16.08;;;8.57;;
8550;SDS011;4313;42.000;21.380;2022-11-23T11:36:59;23.95;;;14.77;;
8550;SDS011;4313;42.000;21.380;2022-11-23T11:39:31;28.95;;;16.52;;
8550;SDS011;4313;42.000;21.380;2022-11-23T11:42:03;30.67;;;18.02;;
8550;SDS011;4313;42.000;21.380;2022-11-23T11:44:33;23.05;;;13.68;;
8550;SDS011;4313;42.000;21.380;2022-11-23T11:47:03;15.38;;;9.15;;
8550;SDS011;4313;42.000;21.380;2022-11-23T11:49:36;15.65;;;8.80;;
8550;SDS011;4313;42.000;21.380;2022-11-23T11:52:07;12.75;;;7.82;;
8550;SDS011;4313;42.000;21.380;2022-11-23T11:54:38;11.73;;;7.20;;
8550;SDS011;4313;42.000;21.380;2022-11-23T11:57:13;14.70;;;8.02;;
8550;SDS011;4313;42.000;21.380;2022-11-23T11:59:44;14.23;;;8.60;;
8550;SDS011;4313;42.000;21.380;2022-11-23T12:02:23;14.60;;;7.88;;
8550;SDS011;4313;42.000;21.380;2022-11-23T12:04:53;13.68;;;6.75;;
8550;SDS011;4313;42.000;21.380;2022-11-23T12:07:27;13.13;;;7.10;;
8550;SDS011;4313;42.000;21.380;2022-11-23T12:09:58;15.32;;;8.80;;
8550;SDS011;4313;42.000;21.380;2022-11-23T12:12:30;15.77;;;9.77;;
8550;SDS011;4313;42.000;21.380;2022-11-23T12:14:58;15.48;;;9.23;;
8550;SDS011;4313;42.000;21.380;2022-11-23T12:17:31;12.18;;;7.97;;
8550;SDS011;4313;42.000;21.380;2022-11-23T12:20:09;12.00;;;7.38;;
8550;SDS011;4313;42.000;21.380;2022-11-23T12:22:43;15.30;;;9.25;;
8550;SDS011;4313;42.000;21.380;2022-11-23T12:25:20;15.60;;;9.70;;
8550;SDS011;4313;42.000;21.380;2022-11-23T12:27:55;16.40;;;10.30;;
8550;SDS011;4313;42.000;21.380;2022-11-23T12:30:28;16.60;;;10.20;;
8550;SDS011;4313;42.000;21.380;2022-11-23T12:33:03;15.45;;;10.27;;
8550;SDS011;4313;42.000;21.380;2022-11-23T12:35:49;18.40;;;11.13;;
8550;SDS011;4313;42.000;21.380;2022-11-23T12:38:28;18.40;;;11.05;;
8550;SDS011;4313;42.000;21.380;2022-11-23T12:41:06;14.77;;;9.88;;
8550;SDS011;4313;42.000;21.380;2022-11-23T12:43:48;13.95;;;9.50;;
8550;SDS011;4313;42.000;21.380;2022-11-23T12:46:21;16.55;;;9.38;;
8550;SDS011;4313;42.000;21.380;2022-11-23T12:49:00;23.67;;;12.68;;
8550;SDS011;4313;42.000;21.380;2022-11-23T12:51:39;16.52;;;10.70;;
8550;SDS011;4313;42.000;21.380;2022-11-23T12:54:27;15.65;;;10.57;;
8550;SDS011;4313;42.000;21.380;2022-11-23T12:57:07;17.00;;;11.85;;
8550;SDS011;4313;42.000;21.380;2022-11-23T12:59:41;16.77;;;10.90;;
8550;SDS011;4313;42.000;21.380;2022-11-23T13:02:11;14.93;;;9.35;;
8550;SDS011;4313;42.000;21.380;2022-11-23T13:04:54;12.65;;;9.07;;
8550;SDS011;4313;42.000;21.380;2022-11-23T13:13:34;13.10;;;8.18;;
8550;SDS011;4313;42.000;21.380;2022-11-23T13:19:02;13.63;;;8.10;;
8550;SDS011;4313;42.000;21.380;2022-11-23T13:21:39;14.35;;;8.27;;
8550;SDS011;4313;42.000;21.380;2022-11-23T13:33:00;17.48;;;10.50;;
8550;SDS011;4313;42.000;21.380;2022-11-23T13:35:48;22.95;;;13.88;;
8550;SDS011;4313;42.000;21.380;2022-11-23T13:38:26;19.25;;;10.80;;
8550;SDS011;4313;42.000;21.380;2022-11-23T13:41:03;15.95;;;9.18;;
8550;SDS011;4313;42.000;21.380;2022-11-23T13:44:22;15.88;;;9.65;;
8550;SDS011;4313;42.000;21.380;2022-11-23T13:46:58;12.95;;;8.60;;
8550;SDS011;4313;42.000;21.380;2022-11-23T13:49:31;18.05;;;13.68;;
8550;SDS011;4313;42.000;21.380;2022-11-23T13:52:16;22.90;;;17.00;;
8550;SDS011;4313;42.000;21.380;2022-11-23T13:55:02;25.38;;;17.55;;
8550;SDS011;4313;42.000;21.380;2022-11-23T13:57:45;20.67;;;14.57;;
8550;SDS011;4313;42.000;21.380;2022-11-23T14:00:47;21.88;;;15.30;;
8550;SDS011;4313;42.000;21.380;2022-11-23T14:06:38;22.70;;;15.50;;
8550;SDS011;4313;42.000;21.380;2022-11-23T14:09:13;31.90;;;23.70;;
8550;SDS011;4313;42.000;21.380;2022-11-23T14:11:49;26.08;;;19.85;;
8550;SDS011;4313;42.000;21.380;2022-11-23T14:14:20;33.40;;;21.77;;
8550;SDS011;4313;42.000;21.380;2022-11-23T14:16:57;37.85;;;22.95;;
8550;SDS011;4313;42.000;21.380;2022-11-23T14:19:42;24.02;;;15.20;;
8550;SDS011;4313;42.000;21.380;2022-11-23T14:22:30;23.02;;;13.85;;
8550;SDS011;4313;42.000;21.380;2022-11-23T14:25:10;14.48;;;9.43;;
8550;SDS011;4313;42.000;21.380;2022-11-23T14:27:45;16.00;;;10.43;;
8550;SDS011;4313;42.000;21.380;2022-11-23T14:33:12;21.13;;;13.68;;
8550;SDS011;4313;42.000;21.380;2022-11-23T14:35:46;28.80;;;22.23;;
8550;SDS011;4313;42.000;21.380;2022-11-23T14:41:27;55.40;;;41.38;;
8550;SDS011;4313;42.000;21.380;2022-11-23T14:43:59;49.05;;;32.80;;
8550;SDS011;4313;42.000;21.380;2022-11-23T14:46:28;38.15;;;27.02;;
8550;SDS011;4313;42.000;21.380;2022-11-23T14:49:03;29.50;;;22.50;;
8550;SDS011;4313;42.000;21.380;2022-11-23T14:51:31;35.75;;;25.83;;
8550;SDS011;4313;42.000;21.380;2022-11-23T14:53:59;32.72;;;24.35;;
8550;SDS011;4313;42.000;21.380;2022-11-23T14:56:30;60.63;;;46.67;;
8550;SDS011;4313;42.000;21.380;2022-11-23T14:59:00;46.25;;;32.72;;
8550;SDS011;4313;42.000;21.380;2022-11-23T15:01:28;85.43;;;66.88;;
8550;SDS011;4313;42.000;21.380;2022-11-23T15:03:56;80.15;;;57.97;;
8550;SDS011;4313;42.000;21.380;2022-11-23T15:06:26;62.95;;;47.20;;
8550;SDS011;4313;42.000;21.380;2022-11-23T15:08:58;64.40;;;47.38;;
8550;SDS011;4313;42.000;21.380;2022-11-23T15:11:29;38.25;;;27.58;;
8550;SDS011;4313;42.000;21.380;2022-11-23T15:13:58;26.05;;;16.75;;
8550;SDS011;4313;42.000;21.380;2022-11-23T15:16:31;21.27;;;14.07;;
8550;SDS011;4313;42.000;21.380;2022-11-23T15:19:16;24.58;;;14.73;;
8550;SDS011;4313;42.000;21.380;2022-11-23T15:21:45;18.90;;;14.52;;
8550;SDS011;4313;42.000;21.380;2022-11-23T15:24:19;22.83;;;14.90;;
8550;SDS011;4313;42.000;21.380;2022-11-23T15:26:47;17.55;;;13.38;;
8550;SDS011;4313;42.000;21.380;2022-11-23T15:29:28;17.48;;;12.13;;
8550;SDS011;4313;42.000;21.380;2022-11-23T15:31:56;16.50;;;11.32;;
8550;SDS011;4313;42.000;21.380;2022-11-23T15:34:23;17.05;;;12.75;;
8550;SDS011;4313;42.000;21.380;2022-11-23T15:36:52;17.55;;;13.90;;
8550;SDS011;4313;42.000;21.380;2022-11-23T15:39:20;17.60;;;13.27;;